Terminal Aerodrome Forecast
Issued by NWS Cleveland, OH

Home | Current Version | Previous Version | Text Only | Print | Product List | Glossary On
Versions: 1 2 3 4 5 6 7 8 9 10 11 12 13 14 15 16 17 18 19
000
FTUS41 KCLE 151458 AAA
TAFYNG
TAF AMD
KYNG 151458Z 1515/1612 20006KT P6SM SCT025 OVC035
     FM152000 23010G18KT P6SM VCSH OVC020
      TEMPO 1521/1523 3SM -SHSN OVC013
     FM160100 25012KT 5SM -SHSN SCT015 OVC025
     FM160500 26010KT P6SM SCT025 OVC035=

USA.gov is the U.S. government's official web portal to all federal, state and local government web resources and services.